Latest Weather Observations for Sydney Harbour

IDN60801

Issued at 5:02 am EST Tuesday 4 August 2015 (issued every 30 minutes, with the page automatically refreshed every 10 minutes)

About weather observations | Map of weather stations | Latest weather observations for NSW | Other Formats
Station Details ID: 066196 Name: WEDDING CAKE WEST Lat: -33.84 Lon: 151.26 Height: 6.0 m
Data from the previous 72 hours. | See also: Recent months at Sydney Harbour
Date/Time
EST
Temp
°C
App
Temp
°C
Dew
Point
Rel
Hum
%
Delta-T
°C
Wind Press
QNH
hPa
Press
MSL
hPa
Rain
since 9 am
mm
Dir
 
Spd
km/h
Gust
km/h
Spd
kts
Gust
kts
04/05:00am 9.7 - - - - WSW 20 26 11 14 - - -
04/04:30am 9.6 - - - - SW 24 28 13 15 - - -
04/04:00am 10.2 - - - - WSW 22 30 12 16 - - -
04/03:30am 10.1 - - - - WSW 24 32 13 17 - - -
04/03:00am 10.2 - - - - WSW 24 30 13 16 - - -
04/02:30am 10.4 - - - - WSW 20 26 11 14 - - -
04/02:00am 10.6 - - - - WSW 17 22 9 12 - - -
04/01:30am 11.4 - - - - SW 22 28 12 15 - - -
04/01:00am 11.6 - - - - SW 20 26 11 14 - - -
04/12:30am 11.8 - - - - WSW 22 28 12 15 - - -
04/12:00am 12.0 - - - - SW 22 26 12 14 - - -
 
Date/Time
EST
Temp
°C
App
Temp
°C
Dew
Point
Rel
Hum
%
Delta-T
°C
Wind Press
QNH
hPa
Press
MSL
hPa
Rain
since 9 am
mm
Dir
 
Spd
km/h
Gust
km/h
Spd
kts
Gust
kts
03/11:30pm 12.2 - - - - SW 20 28 11 15 - - -
03/11:00pm 12.2 - - - - SW 22 26 12 14 - - -
03/10:30pm 12.5 - - - - SW 26 30 14 16 - - -
03/10:00pm 12.5 - - - - SW 28 35 15 19 - - -
03/09:30pm 12.8 - - - - SW 33 43 18 23 - - -
03/09:00pm 13.1 - - - - SW 28 35 15 19 - - -
03/08:30pm 13.3 - - - - W 19 26 10 14 - - -
03/08:00pm 13.7 - - - - WSW 26 39 14 21 - - -
03/07:30pm 14.3 - - - - WSW 32 43 17 23 - - -
03/07:00pm 14.6 - - - - WSW 26 35 14 19 - - -
03/06:30pm 14.8 - - - - WSW 32 43 17 23 - - -
03/06:00pm 15.0 - - - - WSW 30 39 16 21 - - -
03/05:30pm 15.2 - - - - WSW 24 39 13 21 - - -
03/05:00pm 15.6 - - - - WSW 37 50 20 27 - - -
03/04:39pm 16.0 - - - - WSW 39 57 21 31 - - -
03/04:30pm 16.1 - - - - WSW 46 59 25 32 - - -
03/04:00pm 16.6 - - - - WSW 37 56 20 30 - - -
03/03:58pm 16.6 - - - - WSW 37 56 20 30 - - -
03/03:30pm 17.1 - - - - WSW 28 41 15 22 - - -
03/03:00pm 17.2 - - - - WSW 24 35 13 19 - - -
03/02:30pm 17.5 - - - - WSW 28 41 15 22 - - -
03/02:00pm 17.5 - - - - WNW 24 39 13 21 - - -
03/01:30pm 17.1 - - - - W 22 33 12 18 - - -
03/01:00pm 16.3 - - - - WSW 19 33 10 18 - - -
03/12:30pm 15.7 - - - - W 22 32 12 17 - - -
03/12:00pm 15.1 - - - - W 22 35 12 19 - - -
03/11:30am 14.7 - - - - W 24 33 13 18 - - -
03/11:00am 14.3 - - - - W 19 26 10 14 - - -
03/10:30am 13.7 - - - - WNW 17 26 9 14 - - -
03/10:00am 13.4 - - - - NW 15 24 8 13 - - -
03/09:30am 12.3 - - - - N 19 22 10 12 - - -
03/09:00am 11.4 - - - - NNW 17 24 9 13 - - -
03/08:30am 11.0 - - - - NNW 19 26 10 14 - - -
03/08:00am 11.3 - - - - N 15 19 8 10 - - -
03/07:30am 11.2 - - - - NW 19 22 10 12 - - -
03/07:00am 10.1 - - - - NW 17 22 9 12 - - -
03/06:30am 10.0 - - - - WNW 13 19 7 10 - - -
03/06:00am 10.8 - - - - W 15 17 8 9 - - -
03/05:30am 10.7 - - - - W 15 17 8 9 - - -
03/05:00am 11.2 - - - - WSW 17 22 9 12 - - -
03/04:30am 11.2 - - - - WSW 20 28 11 15 - - -
03/04:00am 11.7 - - - - WSW 26 33 14 18 - - -
03/03:30am 12.1 - - - - SW 33 39 18 21 - - -
03/03:00am 12.6 - - - - SW 33 37 18 20 - - -
03/02:30am 13.2 - - - - SW 33 39 18 21 - - -
03/02:00am 14.2 - - - - SW 26 32 14 17 - - -
03/01:30am 14.8 - - - - SW 17 20 9 11 - - -
03/01:00am 15.2 - - - - WSW 22 30 12 16 - - -
03/12:30am 15.7 - - - - SW 24 32 13 17 - - -
03/12:00am 16.6 - - - - WSW 19 26 10 14 - - -
 
Date/Time
EST
Temp
°C
App
Temp
°C
Dew
Point
Rel
Hum
%
Delta-T
°C
Wind Press
QNH
hPa
Press
MSL
hPa
Rain
since 9 am
mm
Dir
 
Spd
km/h
Gust
km/h
Spd
kts
Gust
kts
02/11:30pm 16.9 - - - - WNW 13 19 7 10 - - -
02/11:00pm 17.4 - - - - W 17 22 9 12 - - -
02/10:30pm 18.0 - - - - WSW 15 22 8 12 - - -
02/10:00pm 18.5 - - - - W 33 56 18 30 - - -
02/09:51pm 18.7 - - - - W 33 56 18 30 - - -
02/09:30pm 18.8 - - - - WNW 30 39 16 21 - - -
02/09:00pm 19.0 - - - - W 30 39 16 21 - - -
02/08:30pm 19.9 - - - - W 26 32 14 17 - - -
02/08:00pm 20.6 - - - - WNW 22 32 12 17 - - -
02/07:30pm 21.0 - - - - W 26 35 14 19 - - -
02/07:00pm 21.5 - - - - W 28 35 15 19 - - -
02/06:30pm 22.1 - - - - W 24 32 13 17 - - -
02/06:00pm 22.7 - - - - WNW 19 26 10 14 - - -
02/05:30pm 23.2 - - - - WNW 17 24 9 13 - - -
02/05:00pm 23.9 - - - - WNW 19 28 10 15 - - -
02/04:30pm 24.2 - - - - WNW 24 39 13 21 - - -
02/04:00pm 24.5 - - - - WNW 11 20 6 11 - - -
02/03:30pm 24.2 - - - - NNW 20 33 11 18 - - -
02/03:00pm 24.2 - - - - NW 19 33 10 18 - - -
02/02:30pm 22.1 - - - - NNW 9 15 5 8 - - -
02/02:00pm 18.7 - - - - SW 7 9 4 5 - - -
02/01:30pm 19.8 - - - - CALM 0 4 0 2 - - -
02/01:00pm 17.7 - - - - SW 4 9 2 5 - - -
02/12:30pm 18.6 - - - - CALM 0 0 0 0 - - -
02/12:00pm 17.6 - - - - CALM 0 0 0 0 - - -
02/11:30am 16.7 - - - - SW 9 11 5 6 - - -
02/11:00am 16.0 - - - - SW 11 13 6 7 - - -
02/10:30am 15.6 - - - - SW 13 17 7 9 - - -
02/10:00am 16.2 - - - - W 13 17 7 9 - - -
02/09:30am 16.8 - - - - SSW 15 19 8 10 - - -
02/09:00am 18.0 - - - - N 15 20 8 11 - - -
02/08:30am 17.2 - - - - N 19 20 10 11 - - -
02/08:00am 17.0 - - - - N 17 20 9 11 - - -
02/07:30am 16.9 - - - - N 13 17 7 9 - - -
02/07:00am 17.0 - - - - NNE 15 20 8 11 - - -
02/06:30am 17.4 - - - - N 15 20 8 11 - - -
02/06:00am 17.5 - - - - N 13 17 7 9 - - -
02/05:30am 17.6 - - - - N 22 30 12 16 - - -
02/05:00am 17.7 - - - - N 20 24 11 13 - - -
02/04:30am 17.9 - - - - N 20 28 11 15 - - -
02/04:00am 17.8 - - - - N 13 15 7 8 - - -
02/03:30am 17.7 - - - - N 13 19 7 10 - - -
02/03:00am 17.2 - - - - N 15 17 8 9 - - -
02/02:30am 17.5 - - - - NNW 15 20 8 11 - - -
02/02:00am 17.6 - - - - NNW 15 20 8 11 - - -
02/01:30am 17.2 - - - - NNW 13 15 7 8 - - -
02/01:00am 18.0 - - - - NNW 7 13 4 7 - - -
02/12:30am 18.1 - - - - NNW 11 13 6 7 - - -
02/12:00am 17.7 - - - - N 11 15 6 8 - - -
 
Date/Time
EST
Temp
°C
App
Temp
°C
Dew
Point
Rel
Hum
%
Delta-T
°C
Wind Press
QNH
hPa
Press
MSL
hPa
Rain
since 9 am
mm
Dir
 
Spd
km/h
Gust
km/h
Spd
kts
Gust
kts
01/11:30pm 17.3 - - - - NNW 13 19 7 10 - - -
01/11:00pm 18.5 - - - - NNW 15 20 8 11 - - -
01/10:30pm 18.4 - - - - NNW 9 13 5 7 - - -
01/10:00pm 18.2 - - - - N 9 13 5 7 - - -
01/09:30pm 18.2 - - - - N 7 11 4 6 - - -
01/09:00pm 18.4 - - - - N 9 11 5 6 - - -
01/08:30pm 18.5 - - - - N 13 15 7 8 - - -
01/08:00pm 18.4 - - - - N 11 13 6 7 - - -
01/07:30pm 19.2 - - - - N 13 15 7 8 - - -
01/07:00pm 19.2 - - - - N 17 20 9 11 - - -
01/06:30pm 19.4 - - - - N 15 17 8 9 - - -
01/06:00pm 19.7 - - - - N 17 20 9 11 - - -
01/05:30pm 20.1 - - - - NNW 15 22 8 12 - - -
01/05:00pm 20.4 - - - - N 17 28 9 15 - - -
01/04:30pm 20.4 - - - - NW 11 20 6 11 - - -
01/04:00pm 20.6 - - - - NW 20 35 11 19 - - -
01/03:30pm 21.0 - - - - NW 26 43 14 23 - - -
01/03:05pm 21.1 - - - - WNW 28 48 15 26 - - -
01/03:00pm 21.2 - - - - WNW 26 48 14 26 - - -
01/02:50pm 21.4 - - - - WNW 26 46 14 25 - - -
01/02:30pm 21.4 - - - - NW 20 35 11 19 - - -
01/02:01pm 21.6 - - - - WNW 32 50 17 27 - - -
01/02:00pm 21.6 - - - - WNW 33 50 18 27 - - -
01/01:30pm 21.2 - - - - WNW 41 63 22 34 - - -
01/01:02pm 20.9 - - - - WNW 35 54 19 29 - - -
01/01:00pm 21.1 - - - - WNW 37 54 20 29 - - -
01/12:40pm 20.8 - - - - WNW 28 50 15 27 - - -
01/12:30pm 21.0 - - - - WNW 24 44 13 24 - - -
01/12:00pm 20.2 - - - - NW 20 33 11 18 - - -
01/11:30am 19.9 - - - - NW 13 30 7 16 - - -
01/11:00am 17.9 - - - - N 15 20 8 11 - - -
01/10:30am 16.9 - - - - N 17 24 9 13 - - -
01/10:00am 15.8 - - - - N 19 24 10 13 - - -
01/09:30am 15.4 - - - - N 20 26 11 14 - - -
01/09:00am 15.1 - - - - NNW 22 30 12 16 - - -
01/08:30am 15.2 - - - - NNW 24 32 13 17 - - -
01/08:00am 14.5 - - - - NNW 22 28 12 15 - - -
01/07:30am 12.7 - - - - N 19 24 10 13 - - -
01/07:00am 12.9 - - - - N 15 20 8 11 - - -
01/06:30am 12.8 - - - - N 19 20 10 11 - - -
01/06:00am 13.1 - - - - NNW 19 22 10 12 - - -
01/05:30am 13.0 - - - - NNW 19 20 10 11 - - -

Other Formats:

Comma delimited format used in spreadsheet applications
http://www.bom.gov.au/fwo/IDN60801/IDN60801.95766.axf

JavaScript Object Notation format (JSON) in row-major order
http://www.bom.gov.au/fwo/IDN60801/IDN60801.95766.json